Flight Track Log - Related Links

Times and Time Zones

All times are in EDT time to prevent confusion due to time zone crossing. See the TRS886 flight status page for this flight to view local times or setup timezone preferences in your user account.


Time Position Orientation Groundspeed Altitude Reporting Facility
EDT Latitude Longitude Course Direction KTS MPH feet Rate Location/Type
Mon 02:09:27 PM 28.4000 -81.3000 229° Southwest 173 199 800  Level Orlando TRACON
Mon 02:11:00 PM 28.4167 -81.4682 270° West  Level FlightAware Approximate
Mon 02:12:34 PM 28.2833 -81.4500 270° West 227 261 7,400  Level Orlando TRACON
Mon 02:13:46 PM 28.3000 -81.5500 281° West 257 296 10,000 1,527 Climbing Orlando TRACON
Mon 02:16:14 PM 28.3225 -81.7725 277° West 336 387 13,000 1,522 Climbing Jacksonville Center
Mon 02:18:00 PM 28.4167 -82.2280 270° West  Level FlightAware Approximate
Mon 02:18:14 PM 28.3492 -81.9917 278° West 357 411 16,800  Level Jacksonville Center
Mon 02:19:14 PM 28.3625 -82.1069 278° West 357 411 18,300 1,650 Climbing Jacksonville Center
Mon 02:20:14 PM 28.3756 -82.2225 277° West 369 425 20,100 2,000 Climbing Jacksonville Center
Mon 02:21:14 PM 28.3931 -82.3569 278° West 386 444 22,300 1,600 Climbing Jacksonville Center
Mon 02:23:00 PM 28.4790 -82.5207 328° Northwest  Level FlightAware Approximate
Mon 02:23:14 PM 28.4625 -82.5833 328° Northwest 386 444 24,900  Level Jacksonville Center
Mon 02:24:14 PM 28.5567 -82.6633 323° Northwest 390 449 26,100 1,050 Climbing Jacksonville Center
Mon 02:25:14 PM 28.6528 -82.7458 323° Northwest 407 468 27,000 1,275 Climbing Jacksonville Center
Mon 02:27:00 PM 28.8166 -82.8542 327° Northwest  Level Estimated
Mon 02:28:14 PM 28.9219 -82.9708 327° Northwest 416 479 31,200  Level Jacksonville Center
Mon 02:30:14 PM 29.1056 -83.1256 324° Northwest 416 479 32,000 267 Climbing Jacksonville Center
Mon 02:31:14 PM 29.1972 -83.2042 323° Northwest 416 479 32,000 -50 Level Jacksonville Center
Mon 02:32:14 PM 29.2869 -83.2783 324° Northwest 416 479 31,900 -50 Descending Jacksonville Center
Mon 02:33:14 PM 29.3783 -83.3572 323° Northwest 416 479 31,900  Level Jacksonville Center
Mon 02:34:14 PM 29.4678 -83.4364 322° Northwest 416 479 31,900  Level Jacksonville Center
Mon 02:35:14 PM 29.5572 -83.5108 324° Northwest 411 473 31,900  Level Jacksonville Center
Mon 02:36:14 PM 29.6508 -83.5808 327° Northwest 411 473 31,900  Level Jacksonville Center
Mon 02:37:14 PM 29.7464 -83.6486 328° Northwest 401 461 31,900  Level Jacksonville Center
Mon 02:38:14 PM 29.8422 -83.7164 328° Northwest 401 461 31,900 14 Level Jacksonville Center
Mon 02:40:00 PM 30.0043 -83.8300 329° Northwest  Level FlightAware Approximate
Mon 02:44:14 PM 30.4108 -84.1233 327° Northwest 401 461 32,000  Level Jacksonville Center
Mon 02:45:14 PM 30.5022 -84.1922 327° Northwest 396 456 31,900  Descending Jacksonville Center
Mon 02:47:00 PM 30.6625 -84.3100 328° Northwest  Level FlightAware Approximate
Mon 02:47:00 PM 30.6423 -84.2903 328° Northwest  Level FlightAware Approximate
Mon 02:48:00 PM 30.7328 -84.3574 327° Northwest  Level FlightAware Approximate
Mon 02:48:14 PM 30.7961 -84.4089 328° Northwest 396 456 32,000  Level Jacksonville Center
Mon 02:49:00 PM 30.8232 -84.4247 327° Northwest  Level FlightAware Approximate
Mon 02:50:14 PM 30.9742 -84.5378 328° Northwest 396 456 32,000  Level Jacksonville Center
Mon 02:52:34 PM 31.2000 -84.7064 327° Northwest 400 460 32,000  Level Atlanta Center
Mon 02:53:34 PM 31.2958 -84.7775 328° Northwest 400 460 32,000  Level Atlanta Center
Mon 02:54:34 PM 31.3892 -84.8489 327° Northwest 400 460 32,000  Level Atlanta Center
Mon 02:56:34 PM 31.5781 -84.9894 328° Northwest 400 460 32,000  Level Atlanta Center
Mon 02:58:34 PM 31.7647 -85.1308 327° Northwest 405 466 32,000  Level Atlanta Center
Mon 02:59:34 PM 31.8519 -85.1906 330° Northwest 399 459 32,000  Level Atlanta Center
Mon 03:00:34 PM 31.9450 -85.2625 327° Northwest 399 459 32,000  Level Atlanta Center
Mon 03:02:00 PM 32.0740 -85.3602 327° Northwest  Level FlightAware Approximate
Mon 03:04:34 PM 32.3383 -85.5581 327° Northwest 411 473 32,000  Level Atlanta Center
Mon 03:05:34 PM 32.4314 -85.6311 326° Northwest 411 473 32,000  Level Atlanta Center
Mon 03:06:34 PM 32.5286 -85.7042 328° Northwest 411 473 32,000  Level Atlanta Center
Mon 03:08:00 PM 32.6613 -85.7953 330° Northwest  Level Estimated
Mon 03:08:34 PM 32.7206 -85.8511 330° Northwest 411 473 32,000  Level Atlanta Center
Mon 03:09:00 PM 32.7027 -85.8416 327° Northwest  Level FlightAware Approximate
Mon 03:09:34 PM 32.8156 -85.9272 326° Northwest 411 473 32,000  Level Atlanta Center
Mon 03:10:34 PM 32.9122 -86.0058 326° Northwest 411 473 32,000  Level Atlanta Center
Mon 03:11:34 PM 33.0094 -86.0725 330° Northwest 411 473 32,000  Level Atlanta Center
Mon 03:14:00 PM 33.2263 -86.2443 326° Northwest  Level FlightAware Approximate
Mon 03:14:34 PM 33.2956 -86.2978 326° Northwest 411 473 32,000  Level Atlanta Center
Mon 03:15:34 PM 33.3922 -86.3750 326° Northwest 411 473 32,000  Level Atlanta Center
Mon 03:16:34 PM 33.4764 -86.4444 325° Northwest 411 473 32,000  Level Atlanta Center
Mon 03:17:34 PM 33.5753 -86.5197 328° Northwest 411 473 32,000  Level Atlanta Center
Mon 03:19:00 PM 33.7024 -86.6226 326° Northwest  Level FlightAware Approximate
Mon 03:20:34 PM 33.8708 -86.7558 327° Northwest 416 479 32,000  Level Atlanta Center
Mon 03:22:00 PM 34.0038 -86.8477 330° Northwest  Level Estimated
Mon 03:24:08 PM 34.2372 -87.0533 330° Northwest 450 518 32,000  Level Memphis Center
Mon 03:25:08 PM 34.3372 -87.1325 327° Northwest 426 490 32,000  Level Memphis Center
Mon 03:26:00 PM 34.3229 -87.1281 327° Northwest  Level FlightAware Approximate
Mon 03:26:08 PM 34.4353 -87.2119 326° Northwest 422 486 32,000  Level Memphis Center
Mon 03:28:00 PM 34.5944 -87.3363 326° Northwest  Level FlightAware Approximate
Mon 03:29:00 PM 34.6525 -87.3005 330° Northwest  Level Estimated
Mon 03:29:08 PM 34.7269 -87.4511 326° Northwest 440 506 34,000  Level Memphis Center
Mon 03:31:00 PM 34.8925 -87.5880 326° Northwest  Level FlightAware Approximate
Mon 03:33:08 PM 35.1328 -87.7850 324° Northwest 429 494 34,000  Level Memphis Center
Mon 03:34:08 PM 35.2306 -87.8633 327° Northwest 429 494 34,000  Level Memphis Center
Mon 03:35:08 PM 35.3281 -87.9419 327° Northwest 429 494 34,000  Level Memphis Center
Mon 03:36:08 PM 35.4256 -88.0256 325° Northwest 429 494 34,000  Level Memphis Center
Mon 03:37:08 PM 35.5189 -88.1072 325° Northwest 424 488 34,000  Level Memphis Center
Mon 03:38:00 PM 35.5188 -88.0925 324° Northwest  Level FlightAware Approximate
Mon 03:39:08 PM 35.7092 -88.2581 327° Northwest 413 475 34,000  Level Memphis Center
Mon 03:41:08 PM 35.8994 -88.4197 325° Northwest 413 475 34,000  Level Memphis Center
Mon 03:43:00 PM 36.0624 -88.5633 325° Northwest  Level FlightAware Approximate
Mon 03:45:08 PM 36.2878 -88.7528 326° Northwest 423 487 34,000  Level Memphis Center
Mon 03:46:08 PM 36.3847 -88.8361 325° Northwest 428 493 34,000  Level Memphis Center
Mon 03:47:08 PM 36.4753 -88.9144 325° Northwest 437 503 34,000  Level Memphis Center
Mon 03:48:08 PM 36.5722 -88.9953 326° Northwest 432 497 34,000 -526 Level Memphis Center
Mon 03:50:00 PM 36.7356 -89.1365 325° Northwest  Level FlightAware Approximate
Mon 03:50:00 PM 36.6778 -89.0963 326° Northwest  Level FlightAware Approximate
Mon 03:52:39 PM 37.0025 -89.3733 337° Northwest 412 474 31,100  Level Kansas City Center
Mon 03:53:41 PM 37.1003 -89.4583 325° Northwest 422 486 29,600 -2,032 Descending Kansas City Center
Mon 03:54:43 PM 37.1956 -89.5442 324° Northwest 423 487 26,900 -871 Descending Kansas City Center
Mon 03:56:00 PM 37.3046 -89.6106 338° Northwest  Level FlightAware Approximate
Mon 03:57:00 PM 37.3599 -89.6387 337° Northwest  Level FlightAware Approximate
Mon 03:57:49 PM 37.5053 -89.7250 338° Northwest 411 473 26,000  Level Kansas City Center
Mon 03:58:00 PM 37.4576 -89.6920 337° Northwest  Level FlightAware Approximate
Mon 03:58:51 PM 37.6167 -89.7853 337° Northwest 413 475 25,200  Level Kansas City Center
Mon 03:59:53 PM 37.7181 -89.8411 336° Northwest 402 463 22,800 -2,485 Descending Kansas City Center
Mon 04:02:00 PM 37.9040 -89.9353 338° Northwest  Level FlightAware Approximate
Mon 04:02:50 PM 38.0167 -90.0000 338° Northwest 348 400 15,300  Level Gateway (St. Louis) TRACON
Mon 04:03:00 PM 37.9157 -89.9412 338° Northwest  Level FlightAware Approximate
Mon 04:04:00 PM 38.1148 -90.0648 322° Northwest  Level FlightAware Approximate
Mon 04:06:50 PM 38.3333 -90.0833 311° West 276 318 9,200  Level Gateway (St. Louis) TRACON
Mon 04:08:09 PM 38.4311 -90.1017 352° North 275 316 8,300 -1,064 Descending Kansas City Center
Mon 04:09:11 PM 38.5083 -90.1111 355° North 271 312 6,700 -1,597 Descending Kansas City Center
Mon 04:10:13 PM 38.5797 -90.1183 355° North 265 305 5,000 -1,452 Descending Kansas City Center
Mon 04:11:15 PM 38.6408 -90.1556 335° Northwest 253 291 3,700 -1,210 Descending Kansas City Center
Mon 04:12:17 PM 38.6850 -90.2303 307° West 233 268 2,500 -935 Descending Kansas City Center
Mon 04:14:21 PM 38.7339 -90.3286 303° West 165 190 800 -613 Descending Kansas City Center
Mon 04:15:23 PM 38.7592 -90.3800 302° West 157 181 600 -194 Descending Kansas City Center

Login

Don't have an account? Register now (free) for customized features, flight alerts, and more!